Time;durP1;ratioP1;P1;durP2;ratioP2;P2;SDS_P1;SDS_P2;PMS_P1;PMS_P2;Temp;Humidity;BMP_temperature;BMP_pressure;BME280_temperature;BME280_humidity;BME280_pressure;Samples;Min_cycle;Max_cycle;Signal;HPM_P1;HPM_P2
2021/12/31 00:00:40;;;;;;;54.28;27.63;;;;;;;4.97;100.00;100674.28;5071153;28;20047;-71
2021/12/31 00:03:08;;;;;;;52.08;26.30;;;;;;;5.01;100.00;100674.13;5071500;28;20090;-71
2021/12/31 00:05:38;;;;;;;53.10;26.92;;;;;;;5.06;100.00;100668.72;5070798;28;20045;-71
2021/12/31 00:08:06;;;;;;;51.30;26.52;;;;;;;5.05;100.00;100665.19;5071385;28;20040;-71
2021/12/31 00:10:35;;;;;;;54.95;27.60;;;;;;;5.00;100.00;100669.75;5071177;28;20430;-71
2021/12/31 00:13:03;;;;;;;51.72;26.60;;;;;;;5.05;100.00;100670.50;5070999;28;20091;-71
2021/12/31 00:15:32;;;;;;;49.63;25.55;;;;;;;5.09;100.00;100673.88;5070807;28;20076;-72
2021/12/31 00:18:00;;;;;;;56.13;28.55;;;;;;;5.07;100.00;100673.09;5071368;28;20044;-71
2021/12/31 00:20:28;;;;;;;51.25;26.40;;;;;;;5.04;100.00;100679.34;5070914;28;20063;-71
2021/12/31 00:23:05;;;;;;;55.05;27.77;;;;;;;5.05;100.00;100681.06;5071038;28;20106;-72
2021/12/31 00:25:36;;;;;;;52.72;27.65;;;;;;;5.01;100.00;100670.59;5070918;28;20473;-72
2021/12/31 00:28:05;;;;;;;56.30;28.02;;;;;;;4.99;100.00;100677.72;5073083;28;20470;-71
2021/12/31 00:30:34;;;;;;;58.63;28.08;;;;;;;5.07;100.00;100673.94;5074655;28;20120;-72
2021/12/31 00:33:04;;;;;;;61.53;29.17;;;;;;;5.07;100.00;100671.31;5074915;28;20070;-72
2021/12/31 00:35:33;;;;;;;53.95;28.10;;;;;;;5.06;100.00;100672.22;5074429;28;20071;-73
2021/12/31 00:38:03;;;;;;;58.67;29.50;;;;;;;5.09;100.00;100687.97;5074667;28;20427;-73
2021/12/31 00:40:31;;;;;;;56.80;28.90;;;;;;;5.03;100.00;100685.53;5074247;28;20044;-77
2021/12/31 00:43:00;;;;;;;58.63;28.63;;;;;;;5.05;100.00;100677.56;5074485;28;20048;-72
2021/12/31 00:45:30;;;;;;;64.68;29.95;;;;;;;5.04;100.00;100673.19;5074799;28;20048;-72
2021/12/31 00:47:59;;;;;;;58.83;28.58;;;;;;;5.05;100.00;100675.78;5074566;28;20473;-73
2021/12/31 00:50:27;;;;;;;59.45;29.30;;;;;;;5.02;100.00;100673.25;5074370;28;20112;-72
2021/12/31 00:52:55;;;;;;;54.58;27.60;;;;;;;5.05;100.00;100674.91;5074262;28;20052;-73
2021/12/31 00:55:25;;;;;;;57.97;29.70;;;;;;;5.05;100.00;100686.34;5074069;28;20053;-73
2021/12/31 00:57:53;;;;;;;58.67;28.98;;;;;;;5.08;100.00;100683.59;5074299;28;20456;-73
2021/12/31 01:00:22;;;;;;;60.63;29.88;;;;;;;5.08;100.00;100691.53;5074454;28;20051;-73
2021/12/31 01:02:53;;;;;;;58.00;28.67;;;;;;;5.09;100.00;100690.63;5074233;28;20051;-73
2021/12/31 01:05:21;;;;;;;57.53;28.38;;;;;;;5.07;100.00;100689.81;5074469;28;20063;-73
2021/12/31 01:07:50;;;;;;;57.45;29.50;;;;;;;5.09;100.00;100698.56;5073756;28;20071;-73
2021/12/31 01:10:19;;;;;;;57.42;28.52;;;;;;;5.09;100.00;100692.41;5074016;28;20135;-72
2021/12/31 01:12:50;;;;;;;55.75;28.88;;;;;;;5.12;100.00;100693.19;5073426;28;20500;-73
2021/12/31 01:15:23;;;;;;;61.58;29.35;;;;;;;5.19;100.00;100693.84;5073983;28;20044;-73
2021/12/31 01:18:15;;;;;;;57.63;28.73;;;;;;;5.15;100.00;100689.56;5073600;28;20127;-73
2021/12/31 01:20:44;;;;;;;57.67;28.88;;;;;;;5.15;100.00;100694.88;5073901;28;20428;-73
2021/12/31 01:23:15;;;;;;;57.38;28.55;;;;;;;5.16;100.00;100693.94;5073766;28;20490;-72
2021/12/31 01:25:45;;;;;;;57.97;29.13;;;;;;;5.21;100.00;100691.16;5073674;28;20178;-74
2021/12/31 01:28:15;;;;;;;54.83;29.30;;;;;;;5.24;100.00;100693.72;5074066;28;20040;-73
2021/12/31 01:30:44;;;;;;;61.88;29.70;;;;;;;5.21;100.00;100689.41;5073300;28;20507;-74
2021/12/31 01:33:12;;;;;;;60.40;28.92;;;;;;;5.21;100.00;100683.22;5072387;28;20052;-73
2021/12/31 01:35:40;;;;;;;56.55;28.23;;;;;;;5.20;100.00;100689.41;5073165;28;20045;-74
2021/12/31 01:38:09;;;;;;;56.25;28.67;;;;;;;5.18;100.00;100692.97;5073064;28;20048;-73
2021/12/31 01:40:37;;;;;;;54.70;28.35;;;;;;;5.17;100.00;100685.97;5073192;28;20120;-74
2021/12/31 01:43:05;;;;;;;57.58;29.10;;;;;;;5.20;100.00;100686.78;5073798;28;20051;-72
2021/12/31 01:45:43;;;;;;;60.60;29.42;;;;;;;5.23;100.00;100684.91;5073566;28;20144;-74
2021/12/31 01:48:23;;;;;;;56.58;29.05;;;;;;;5.16;100.00;100683.38;5073748;28;20051;-74
2021/12/31 01:50:52;;;;;;;56.63;29.48;;;;;;;5.21;100.00;100678.81;5072162;28;20158;-72
2021/12/31 01:53:23;;;;;;;66.75;29.58;;;;;;;5.17;100.00;100677.16;5073343;28;20044;-71
2021/12/31 01:55:52;;;;;;;59.80;29.85;;;;;;;5.23;100.00;100678.78;5073009;28;20052;-71
2021/12/31 01:58:23;;;;;;;57.85;30.00;;;;;;;5.26;100.00;100670.72;5073183;28;20406;-71
2021/12/31 02:00:53;;;;;;;56.67;28.67;;;;;;;5.31;100.00;100677.63;5073073;28;20063;-72
2021/12/31 02:03:23;;;;;;;59.45;29.70;;;;;;;5.28;100.00;100682.13;5073351;28;20124;-71
2021/12/31 02:05:52;;;;;;;60.55;28.52;;;;;;;5.29;100.00;100681.19;5072764;28;20040;-74
2021/12/31 02:08:20;;;;;;;60.17;29.02;;;;;;;5.26;100.00;100679.53;5073293;28;20037;-74
2021/12/31 02:10:50;;;;;;;58.30;30.40;;;;;;;5.28;100.00;100684.75;5072735;28;20051;-75
2021/12/31 02:13:21;;;;;;;52.33;28.27;;;;;;;5.28;100.00;100692.69;5072656;28;20074;-74
2021/12/31 02:15:50;;;;;;;58.60;30.05;;;;;;;5.30;100.00;100697.00;5072435;28;20113;-75
2021/12/31 02:18:20;;;;;;;56.90;28.58;;;;;;;5.31;100.00;100682.03;5073171;28;20119;-75
2021/12/31 02:20:49;;;;;;;56.28;29.13;;;;;;;5.29;100.00;100678.56;5072382;28;20052;-75
2021/12/31 02:23:22;;;;;;;57.10;28.48;;;;;;;5.29;100.00;100678.56;5073044;28;20044;-71
2021/12/31 02:25:50;;;;;;;53.90;28.85;;;;;;;5.30;100.00;100675.00;5072870;28;20052;-71
2021/12/31 02:28:19;;;;;;;56.00;29.55;;;;;;;5.30;100.00;100667.06;5072785;28;20042;-71
2021/12/31 02:30:49;;;;;;;58.05;29.92;;;;;;;5.27;100.00;100660.09;5072180;28;20044;-72
2021/12/31 02:33:17;;;;;;;54.53;28.58;;;;;;;5.29;100.00;100658.25;5072667;28;20066;-71
2021/12/31 02:35:46;;;;;;;58.83;30.38;;;;;;;5.31;100.00;100661.75;5072047;28;20094;-72
2021/12/31 02:38:16;;;;;;;60.53;29.75;;;;;;;5.38;100.00;100662.38;5072256;28;20040;-74
2021/12/31 02:40:44;;;;;;;58.03;29.90;;;;;;;5.32;100.00;100657.31;5072018;28;20073;-75
2021/12/31 02:43:12;;;;;;;53.90;28.00;;;;;;;5.32;100.00;100663.47;5072563;28;20085;-74
2021/12/31 02:45:42;;;;;;;54.50;29.92;;;;;;;5.30;100.00;100659.13;5072252;28;20045;-77
2021/12/31 02:48:11;;;;;;;53.33;28.30;;;;;;;5.27;100.00;100652.16;5072086;28;20146;-72
2021/12/31 02:50:41;;;;;;;57.83;29.98;;;;;;;5.31;100.00;100659.09;5071783;28;20048;-73
2021/12/31 02:53:11;;;;;;;55.72;27.40;;;;;;;5.33;100.00;100656.41;5072517;28;20044;-73
2021/12/31 02:55:43;;;;;;;56.53;28.67;;;;;;;5.35;100.00;100662.50;5072183;28;20156;-73
2021/12/31 02:58:11;;;;;;;50.60;27.42;;;;;;;5.33;100.00;100654.63;5072112;28;20478;-72
2021/12/31 03:00:43;;;;;;;50.60;28.27;;;;;;;5.32;100.00;100654.66;5072287;28;20041;-72
2021/12/31 03:03:13;;;;;;;51.10;27.75;;;;;;;5.33;100.00;100645.81;5072125;28;20071;-72
2021/12/31 03:05:42;;;;;;;53.45;27.52;;;;;;;5.34;100.00;100650.19;5071590;28;20045;-77
2021/12/31 03:08:13;;;;;;;55.63;28.98;;;;;;;5.33;100.00;100653.75;5072082;28;20040;-72
2021/12/31 03:10:44;;;;;;;53.55;27.95;;;;;;;5.28;100.00;100645.09;5072184;28;20457;-72
2021/12/31 03:13:14;;;;;;;53.60;28.20;;;;;;;5.25;100.00;100651.34;5071526;28;20044;-73
2021/12/31 03:15:43;;;;;;;49.80;27.05;;;;;;;5.16;100.00;100641.94;5071871;28;20072;-77
2021/12/31 03:18:12;;;;;;;52.42;27.60;;;;;;;5.10;100.00;100644.75;5071611;28;20036;-73
2021/12/31 03:20:46;;;;;;;54.30;29.02;;;;;;;5.04;100.00;100652.91;5071660;28;20048;-73
2021/12/31 03:23:14;;;;;;;49.65;27.48;;;;;;;5.03;100.00;100652.94;5072067;28;20072;-73
2021/12/31 03:25:44;;;;;;;51.58;27.45;;;;;;;4.95;100.00;100655.81;5071715;28;20086;-76
2021/12/31 03:28:12;;;;;;;51.28;26.83;;;;;;;4.95;100.00;100647.88;5071731;28;20423;-71
2021/12/31 03:30:41;;;;;;;51.85;28.83;;;;;;;4.93;100.00;100644.44;5071612;28;20049;-73
2021/12/31 03:33:09;;;;;;;49.55;27.17;;;;;;;5.00;100.00;100647.72;5071829;28;20099;-72
2021/12/31 03:35:37;;;;;;;53.08;27.88;;;;;;;4.95;100.00;100647.03;5071709;28;20405;-72
2021/12/31 03:38:06;;;;;;;52.75;29.58;;;;;;;4.92;100.00;100642.69;5071369;28;20079;-73
2021/12/31 03:40:34;;;;;;;51.22;28.33;;;;;;;4.85;100.00;100649.94;5071665;28;20088;-72
2021/12/31 03:43:04;;;;;;;54.85;27.80;;;;;;;4.87;100.00;100652.53;5071385;28;20094;-71
2021/12/31 03:45:32;;;;;;;49.40;26.77;;;;;;;5.05;100.00;100654.63;5072187;28;20094;-71
2021/12/31 03:48:03;;;;;;;50.33;26.70;;;;;;;4.93;100.00;100644.44;5070995;28;20117;-71
2021/12/31 03:50:32;;;;;;;53.75;27.05;;;;;;;4.91;100.00;100650.66;5071411;28;20481;-71
2021/12/31 03:53:00;;;;;;;54.38;27.52;;;;;;;4.89;100.00;100648.94;5070919;28;20072;-71
2021/12/31 03:55:28;;;;;;;51.30;27.42;;;;;;;4.89;100.00;100648.06;5071328;28;20082;-71
2021/12/31 03:57:56;;;;;;;54.45;28.95;;;;;;;4.97;100.00;100640.78;5069841;28;20048;-71
2021/12/31 04:00:28;;;;;;;68.65;31.33;;;;;;;4.96;100.00;100632.88;5073416;28;20128;-71
2021/12/31 04:02:57;;;;;;;61.53;30.90;;;;;;;5.00;100.00;100630.09;5078072;28;20040;-71
2021/12/31 04:05:28;;;;;;;61.47;30.40;;;;;;;5.04;100.00;100631.75;5078091;28;20538;-71
2021/12/31 04:07:57;;;;;;;58.33;30.52;;;;;;;5.04;100.00;100631.75;5077594;28;20039;-71
2021/12/31 04:10:25;;;;;;;59.38;30.02;;;;;;;5.03;100.00;100640.59;5078013;28;20047;-71
2021/12/31 04:12:54;;;;;;;61.20;32.03;;;;;;;4.98;100.00;100641.63;5077578;28;20102;-71
2021/12/31 04:15:22;;;;;;;69.88;32.92;;;;;;;4.94;100.00;100643.53;5077898;28;20460;-70
2021/12/31 04:17:52;;;;;;;67.82;33.58;;;;;;;4.87;100.00;100640.19;5077299;28;20101;-71
2021/12/31 04:20:32;;;;;;;65.57;32.75;;;;;;;4.84;100.00;100647.34;5077672;28;20052;-71
2021/12/31 04:23:02;;;;;;;79.43;35.97;;;;;;;4.80;100.00;100649.22;5077815;28;20150;-73
2021/12/31 04:25:33;;;;;;;77.63;35.28;;;;;;;4.74;100.00;100651.19;5078031;28;20054;-73
2021/12/31 04:28:01;;;;;;;74.05;35.60;;;;;;;4.72;100.00;100645.94;5077619;28;20043;-73
2021/12/31 04:30:33;;;;;;;86.47;37.67;;;;;;;4.72;100.00;100645.94;5077759;28;20131;-71
2021/12/31 04:33:03;;;;;;;81.05;35.90;;;;;;;4.66;100.00;100635.56;5077379;28;20121;-70
2021/12/31 04:35:34;;;;;;;75.65;34.25;;;;;;;4.74;100.00;100632.69;5077548;28;20051;-71
2021/12/31 04:38:02;;;;;;;74.75;34.38;;;;;;;4.77;100.00;100633.44;5077412;28;20041;-71
2021/12/31 04:40:30;;;;;;;71.15;33.28;;;;;;;4.63;100.00;100640.91;5077549;28;20079;-71
2021/12/31 04:42:59;;;;;;;84.25;33.22;;;;;;;4.52;100.00;100633.31;5076235;28;20154;-71
2021/12/31 04:45:27;;;;;;;76.03;32.83;;;;;;;4.50;100.00;100634.28;5077625;28;20399;-71
2021/12/31 04:47:55;;;;;;;64.40;31.52;;;;;;;4.44;100.00;100635.34;5077268;28;20036;-71
2021/12/31 04:50:25;;;;;;;63.67;31.40;;;;;;;4.42;100.00;100639.75;5076445;28;20067;-70
2021/12/31 04:52:53;;;;;;;66.30;31.80;;;;;;;4.50;100.00;100640.41;5076996;28;20049;-71
2021/12/31 04:55:21;;;;;;;54.15;28.33;;;;;;;4.42;100.00;100645.06;5077011;28;20548;-70
2021/12/31 04:57:49;;;;;;;58.20;28.60;;;;;;;4.43;100.00;100644.13;5077242;28;20044;-75
2021/12/31 05:00:18;;;;;;;52.38;30.20;;;;;;;4.41;100.00;100653.03;5077204;28;20068;-71
2021/12/31 05:02:47;;;;;;;57.80;29.33;;;;;;;4.44;100.00;100655.56;5076167;28;20489;-71
2021/12/31 05:05:15;;;;;;;53.15;28.83;;;;;;;4.45;100.00;100650.25;5077421;28;20083;-70
2021/12/31 05:07:45;;;;;;;50.83;28.60;;;;;;;4.48;100.00;100646.66;5077504;28;20041;-72
2021/12/31 05:10:14;;;;;;;51.95;27.70;;;;;;;4.53;100.00;100636.81;5077040;28;20135;-72
2021/12/31 05:12:43;;;;;;;49.97;27.30;;;;;;;4.59;100.00;100641.94;5074645;28;20078;-72
2021/12/31 05:15:11;;;;;;;49.35;27.45;;;;;;;4.59;100.00;100640.16;5073560;28;20037;-72
2021/12/31 05:17:39;;;;;;;45.40;27.25;;;;;;;4.64;100.00;100641.81;5073913;28;20103;-72
2021/12/31 05:20:08;;;;;;;49.03;28.35;;;;;;;4.65;100.00;100643.53;5073944;28;20044;-72
2021/12/31 05:22:37;;;;;;;50.67;28.00;;;;;;;4.64;100.00;100647.09;5073805;28;20072;-71
2021/12/31 05:25:08;;;;;;;46.47;27.17;;;;;;;4.58;100.00;100643.69;5073717;28;20052;-72
2021/12/31 05:27:36;;;;;;;44.15;26.25;;;;;;;4.59;100.00;100644.56;5073706;28;20036;-71
2021/12/31 05:30:05;;;;;;;43.55;25.52;;;;;;;4.60;100.00;100639.22;5073730;28;20123;-71
2021/12/31 05:32:33;;;;;;;42.95;25.48;;;;;;;4.57;100.00;100641.97;5073698;28;20535;-71
2021/12/31 05:35:02;;;;;;;42.28;25.52;;;;;;;4.57;100.00;100652.53;5072280;28;20058;-71
2021/12/31 05:37:30;;;;;;;45.55;25.88;;;;;;;4.53;100.00;100653.53;5073898;28;20045;-71
2021/12/31 05:39:58;;;;;;;49.33;25.90;;;;;;;4.50;100.00;100650.97;5073675;28;20044;-71
2021/12/31 05:42:28;;;;;;;46.45;26.90;;;;;;;4.48;100.00;100647.53;5073852;28;20052;-71
2021/12/31 05:44:58;;;;;;;48.50;25.65;;;;;;;4.52;100.00;100649.16;5073539;28;20048;-71
2021/12/31 05:47:29;;;;;;;45.88;25.85;;;;;;;4.54;100.00;100657.94;5073581;28;20040;-72
2021/12/31 05:49:57;;;;;;;49.53;28.20;;;;;;;4.55;100.00;100649.09;5072265;28;20076;-72
2021/12/31 05:52:25;;;;;;;43.05;26.63;;;;;;;4.67;100.00;100654.91;5073589;28;20040;-72
2021/12/31 05:54:53;;;;;;;46.83;26.33;;;;;;;4.67;100.00;100639.94;5072651;28;20083;-76
2021/12/31 05:57:21;;;;;;;43.03;26.55;;;;;;;4.72;100.00;100645.94;5073187;28;20114;-72
2021/12/31 05:59:51;;;;;;;45.80;24.98;;;;;;;4.75;100.00;100645.00;5073349;28;20371;-71
2021/12/31 06:02:19;;;;;;;42.88;25.80;;;;;;;4.77;100.00;100648.44;5073142;28;20112;-70
2021/12/31 06:04:48;;;;;;;42.03;25.88;;;;;;;4.76;100.00;100657.28;5073068;28;20429;-70
2021/12/31 06:07:16;;;;;;;45.63;25.67;;;;;;;4.73;100.00;100658.25;5073019;28;20469;-71
2021/12/31 06:09:45;;;;;;;42.72;24.70;;;;;;;4.71;100.00;100652.13;5072877;28;20386;-71
2021/12/31 06:12:13;;;;;;;40.83;24.55;;;;;;;4.76;100.00;100654.66;5072522;28;20097;-71
2021/12/31 06:14:41;;;;;;;42.97;23.85;;;;;;;4.89;100.00;100656.88;5072892;28;20132;-71
2021/12/31 06:17:12;;;;;;;44.45;25.73;;;;;;;5.00;100.00;100659.16;5072689;28;20055;-71
2021/12/31 06:19:41;;;;;;;47.38;26.15;;;;;;;5.16;100.00;100663.09;5072997;28;20049;-70
2021/12/31 06:22:11;;;;;;;43.65;25.25;;;;;;;5.07;100.00;100665.16;5072617;28;20044;-71
2021/12/31 06:24:39;;;;;;;43.25;24.13;;;;;;;5.26;100.00;100657.50;5071775;28;20495;-71
2021/12/31 06:27:07;;;;;;;42.28;24.33;;;;;;;5.38;100.00;100672.97;5072557;28;20067;-71
2021/12/31 06:29:36;;;;;;;44.25;23.83;;;;;;;5.18;100.00;100677.13;5072576;28;20051;-72
2021/12/31 06:32:05;;;;;;;42.53;24.80;;;;;;;5.17;100.00;100680.69;5072470;28;20044;-73
2021/12/31 06:34:39;;;;;;;42.58;23.05;;;;;;;5.08;100.00;100683.59;5072424;28;20048;-72
2021/12/31 06:37:07;;;;;;;40.90;25.45;;;;;;;5.23;100.00;100689.34;5071075;28;20135;-72
2021/12/31 06:39:36;;;;;;;39.40;23.13;;;;;;;5.10;100.00;100686.19;5072668;28;20443;-72
2021/12/31 06:42:07;;;;;;;36.33;22.92;;;;;;;5.14;100.00;100685.22;5072200;28;20040;-72
2021/12/31 06:44:36;;;;;;;37.10;21.33;;;;;;;5.53;100.00;100691.00;5072560;28;20041;-71
2021/12/31 06:47:05;;;;;;;38.30;22.65;;;;;;;5.91;100.00;100688.91;5072110;28;20043;-72
2021/12/31 06:49:34;;;;;;;36.72;20.70;;;;;;;6.36;100.00;100689.06;5072187;28;20124;-72
2021/12/31 06:52:05;;;;;;;31.98;19.75;;;;;;;6.52;100.00;100692.03;5071847;28;20075;-71
2021/12/31 06:54:33;;;;;;;28.48;18.63;;;;;;;6.76;100.00;100683.19;5071318;28;20151;-72
2021/12/31 06:57:01;;;;;;;31.05;18.67;;;;;;;7.06;100.00;100682.94;5072162;28;20086;-73
2021/12/31 06:59:29;;;;;;;30.08;18.70;;;;;;;7.15;100.00;100693.19;5072046;28;20050;-72
2021/12/31 07:01:58;;;;;;;25.08;16.80;;;;;;;7.21;100.00;100702.69;5071935;28;20059;-76
2021/12/31 07:04:27;;;;;;;29.02;17.73;;;;;;;7.42;100.00;100691.22;5071793;28;20401;-71
2021/12/31 07:06:55;;;;;;;28.58;18.40;;;;;;;7.66;100.00;100702.66;5071701;28;20124;-73
2021/12/31 07:09:31;;;;;;;25.40;15.80;;;;;;;7.99;100.00;100690.59;5072088;28;20048;-72
2021/12/31 07:12:00;;;;;;;25.83;16.92;;;;;;;7.97;100.00;100695.13;5071310;28;20048;-73
2021/12/31 07:14:28;;;;;;;23.10;15.30;;;;;;;8.10;100.00;100711.41;5072044;28;20190;-73
2021/12/31 07:16:57;;;;;;;25.35;16.77;;;;;;;8.09;100.00;100708.81;5070569;28;20049;-72
2021/12/31 07:19:25;;;;;;;26.48;16.60;;;;;;;7.90;100.00;100714.03;5071857;28;20452;-72
2021/12/31 07:21:54;;;;;;;27.63;17.90;;;;;;;7.80;100.00;100718.00;5071571;28;20074;-72
2021/12/31 07:24:22;;;;;;;25.23;16.60;;;;;;;7.73;100.00;100725.38;5071148;28;20052;-73
2021/12/31 07:26:53;;;;;;;24.73;16.88;;;;;;;7.56;100.00;100719.88;5071523;28;20106;-74
2021/12/31 07:29:21;;;;;;;24.08;15.90;;;;;;;7.62;100.00;100716.94;5071535;28;20044;-75
2021/12/31 07:31:49;;;;;;;26.83;15.60;;;;;;;7.65;100.00;100720.38;5071717;28;20040;-75
2021/12/31 07:34:18;;;;;;;25.00;16.42;;;;;;;7.73;100.00;100717.41;5071557;28;20047;-71
2021/12/31 07:36:46;;;;;;;24.27;15.15;;;;;;;7.87;100.00;100720.34;5071375;28;20056;-71
2021/12/31 07:39:14;;;;;;;24.60;14.95;;;;;;;7.84;100.00;100720.47;5069789;28;20059;-72
2021/12/31 07:41:42;;;;;;;23.58;15.38;;;;;;;7.79;100.00;100722.44;5071601;28;20051;-71
2021/12/31 07:44:12;;;;;;;23.25;15.05;;;;;;;7.85;100.00;100729.31;5069933;28;20044;-72
2021/12/31 07:46:43;;;;;;;21.15;14.27;;;;;;;7.76;100.00;100727.91;5071283;28;20605;-71
2021/12/31 07:49:12;;;;;;;20.60;13.63;;;;;;;7.71;100.00;100736.03;5070947;28;20140;-71
2021/12/31 07:51:40;;;;;;;23.45;14.82;;;;;;;7.74;100.00;100735.06;5071258;28;20417;-73
2021/12/31 07:54:08;;;;;;;20.23;13.60;;;;;;;7.73;100.00;100734.19;5071340;28;20055;-73
2021/12/31 07:56:36;;;;;;;20.35;14.32;;;;;;;7.67;100.00;100739.75;5071626;28;20049;-74
2021/12/31 07:59:05;;;;;;;21.40;14.43;;;;;;;7.68;100.00;100740.63;5071509;28;20427;-72
2021/12/31 08:01:34;;;;;;;26.45;15.93;;;;;;;7.77;100.00;100742.03;5071506;28;20063;-72
2021/12/31 08:04:03;;;;;;;22.27;15.02;;;;;;;8.02;100.00;100740.97;5071308;28;20045;-77
2021/12/31 08:06:31;;;;;;;23.77;15.95;;;;;;;7.93;100.00;100727.19;5071073;28;20485;-72
2021/12/31 08:08:59;;;;;;;26.88;17.63;;;;;;;7.80;100.00;100740.09;5071370;28;20049;-72
2021/12/31 08:11:28;;;;;;;27.23;17.20;;;;;;;7.62;100.00;100751.47;5071032;28;20474;-72
2021/12/31 08:13:56;;;;;;;27.25;17.40;;;;;;;7.51;100.00;100753.69;5070980;28;20401;-73
2021/12/31 08:16:27;;;;;;;23.45;15.88;;;;;;;7.93;100.00;100736.03;5070970;28;20075;-72
2021/12/31 08:18:56;;;;;;;20.88;14.63;;;;;;;7.99;100.00;100729.59;5071358;28;20052;-72
2021/12/31 08:21:24;;;;;;;22.70;15.70;;;;;;;7.97;100.00;100731.44;5070593;28;20048;-72
2021/12/31 08:23:53;;;;;;;22.23;15.07;;;;;;;7.92;100.00;100739.63;5071318;28;20040;-72
2021/12/31 08:26:21;;;;;;;24.75;16.83;;;;;;;7.80;100.00;100744.56;5070737;28;20067;-72
2021/12/31 08:28:49;;;;;;;25.05;16.83;;;;;;;7.67;100.00;100754.81;5071220;28;20040;-72
2021/12/31 08:31:18;;;;;;;23.85;16.73;;;;;;;7.62;100.00;100746.16;5070816;28;20067;-72
2021/12/31 08:33:46;;;;;;;28.08;18.60;;;;;;;7.64;100.00;100752.28;5071021;28;20097;-71
2021/12/31 08:36:15;;;;;;;25.75;17.50;;;;;;;7.63;100.00;100758.53;5070269;28;20071;-73
2021/12/31 08:38:44;;;;;;;25.45;16.80;;;;;;;7.57;100.00;100748.16;5070802;28;20087;-71
2021/12/31 08:41:12;;;;;;;23.90;16.77;;;;;;;7.74;100.00;100737.72;5070804;28;20048;-70
2021/12/31 08:44:00;;;;;;;23.33;15.63;;;;;;;8.11;100.00;100737.06;5071240;28;20060;-71
2021/12/31 08:46:28;;;;;;;22.23;14.50;;;;;;;8.03;100.00;100748.00;5070766;28;20049;-72
2021/12/31 08:48:56;;;;;;;22.08;15.07;;;;;;;7.97;100.00;100750.91;5074215;28;20086;-72
2021/12/31 08:51:27;;;;;;;19.08;13.52;;;;;;;8.50;100.00;100737.16;5074334;28;20090;-72
2021/12/31 08:53:56;;;;;;;23.00;14.65;;;;;;;8.45;100.00;100755.09;5074294;28;20040;-72
2021/12/31 08:56:24;;;;;;;17.38;11.40;;;;;;;8.68;100.00;100746.09;5074446;28;20071;-71
2021/12/31 08:58:52;;;;;;;16.17;11.77;;;;;;;8.81;100.00;100752.63;5074490;28;20044;-71
2021/12/31 09:01:21;;;;;;;14.10;9.68;;;;;;;9.16;100.00;100753.66;5079859;28;20425;-70
2021/12/31 09:03:49;;;;;;;14.05;10.00;;;;;;;9.26;100.00;100755.88;5074494;28;20036;-70
2021/12/31 09:06:18;;;;;;;15.05;9.13;;;;;;;9.49;100.00;100758.34;5073853;28;20045;-72
2021/12/31 09:08:49;;;;;;;12.35;8.48;;;;;;;9.56;100.00;100757.13;5072768;28;20055;-75
2021/12/31 09:11:17;;;;;;;13.38;8.68;;;;;;;9.65;100.00;100761.13;5074059;28;20040;-75
2021/12/31 09:13:47;;;;;;;12.88;8.40;;;;;;;9.68;100.00;100759.19;5074244;28;20127;-75
2021/12/31 09:16:16;;;;;;;11.88;7.88;;;;;;;9.86;100.00;100762.78;5073018;28;20060;-77
2021/12/31 09:18:44;;;;;;;15.55;8.82;;;;;;;9.83;100.00;100759.38;5074378;28;20072;-75
2021/12/31 09:21:14;;;;;;;13.48;8.80;;;;;;;9.64;100.00;100770.91;5074025;28;20046;-73
2021/12/31 09:23:42;;;;;;;14.13;7.95;;;;;;;9.92;100.00;100758.91;5074198;28;20058;-72
2021/12/31 09:26:12;;;;;;;12.57;7.82;;;;;;;9.85;100.00;100758.38;5073739;28;20067;-75
2021/12/31 09:28:40;;;;;;;15.77;8.55;;;;;;;9.59;100.00;100761.44;5074136;28;20048;-75
2021/12/31 09:31:10;;;;;;;11.82;8.32;;;;;;;9.46;100.00;100759.38;5073865;28;20079;-74
2021/12/31 09:33:39;;;;;;;10.43;7.05;;;;;;;9.63;100.00;100755.00;5074281;28;20052;-75
2021/12/31 09:36:07;;;;;;;10.25;7.20;;;;;;;9.52;100.00;100749.34;5074081;28;20470;-73
2021/12/31 09:38:37;;;;;;;10.07;6.75;;;;;;;9.47;100.00;100744.25;5074457;28;20044;-73
2021/12/31 09:41:05;;;;;;;10.82;6.68;;;;;;;9.79;100.00;100740.03;5073675;28;20048;-74
2021/12/31 09:43:37;;;;;;;8.43;6.00;;;;;;;9.88;100.00;100738.72;5073508;28;20052;-74
2021/12/31 09:46:05;;;;;;;9.20;5.93;;;;;;;10.21;100.00;100729.00;5073518;28;20102;-73
2021/12/31 09:48:34;;;;;;;9.77;5.57;;;;;;;10.09;100.00;100740.28;5073185;28;20109;-72
2021/12/31 09:51:07;;;;;;;11.13;5.72;;;;;;;10.10;100.00;100736.69;5073800;28;20121;-71
2021/12/31 09:53:35;;;;;;;8.77;5.55;;;;;;;10.03;100.00;100735.25;5073059;28;20048;-70
2021/12/31 09:56:07;;;;;;;8.35;5.25;;;;;;;10.06;100.00;100735.13;5073360;28;20060;-70
2021/12/31 09:58:37;;;;;;;10.70;5.07;;;;;;;10.28;100.00;100735.78;5072553;28;20040;-70
2021/12/31 10:01:08;;;;;;;8.45;4.72;;;;;;;10.32;100.00;100720.47;5071735;28;20135;-70
2021/12/31 10:03:38;;;;;;;8.85;5.40;;;;;;;10.57;100.00;100720.06;5073062;28;20048;-72
2021/12/31 10:06:08;;;;;;;8.35;5.35;;;;;;;10.63;100.00;100724.25;5073191;28;20045;-73
2021/12/31 10:08:46;;;;;;;11.05;5.13;;;;;;;10.42;100.00;100707.53;5072585;28;20064;-74
2021/12/31 10:11:17;;;;;;;7.15;4.53;;;;;;;10.68;100.00;100717.69;5073019;28;20060;-71
2021/12/31 10:13:54;;;;;;;8.75;4.70;;;;;;;10.76;100.00;100720.81;5073209;28;20131;-71
2021/12/31 10:16:24;;;;;;;7.43;4.53;;;;;;;10.68;100.00;100717.69;5072928;28;20048;-70
2021/12/31 10:19:08;;;;;;;8.05;4.32;;;;;;;10.69;100.00;100721.22;5073183;28;20072;-71
2021/12/31 10:21:41;;;;;;;7.97;4.05;;;;;;;10.68;100.00;100723.03;5072657;28;20041;-70
2021/12/31 10:24:26;;;;;;;7.37;3.83;;;;;;;10.78;100.00;100716.25;5072772;28;20044;-71
2021/12/31 10:26:58;;;;;;;6.75;3.67;;;;;;;10.96;100.00;100717.06;5072903;28;20194;-71
2021/12/31 10:29:28;;;;;;;7.00;3.67;;;;;;;11.16;100.00;100702.63;5072699;28;20102;-69
2021/12/31 10:31:57;;;;;;;7.60;3.70;;;;;;;11.24;100.00;100708.41;5072842;28;20052;-69
2021/12/31 10:34:31;;;;;;;5.20;3.40;;;;;;;11.21;100.00;100710.41;5071400;28;20052;-70
2021/12/31 10:37:00;;;;;;;8.02;3.30;;;;;;;11.33;100.00;100704.38;5072310;28;20129;-69
2021/12/31 10:39:32;;;;;;;5.38;3.30;;;;;;;11.47;100.00;100699.09;5072244;28;20045;-72
2021/12/31 10:42:07;;;;;;;7.07;4.00;;;;;;;11.43;100.00;100697.56;5072409;28;20485;-70
2021/12/31 10:44:47;;;;;;;7.65;4.05;;;;;;;11.51;100.00;100697.13;5072263;28;20041;-69
2021/12/31 10:47:18;;;;;;;6.40;3.90;;;;;;;11.51;100.00;100692.66;5072441;28;20127;-70
2021/12/31 10:50:12;;;;;;;4.57;2.75;;;;;;;11.57;100.00;100696.75;5072708;28;20123;-69
2021/12/31 10:52:46;;;;;;;6.15;3.35;;;;;;;11.58;100.00;100698.47;5072137;28;20045;-69
2021/12/31 10:55:19;;;;;;;6.05;3.67;;;;;;;11.53;100.00;100696.09;5072046;28;20432;-71
2021/12/31 10:57:49;;;;;;;5.35;3.20;;;;;;;11.58;100.00;100698.47;5072351;28;20045;-71
2021/12/31 11:00:20;;;;;;;6.72;3.28;;;;;;;11.56;100.00;100689.69;5071942;28;20470;-72
2021/12/31 11:02:49;;;;;;;5.15;2.42;;;;;;;11.58;100.00;100695.81;5072350;28;20056;-70
2021/12/31 11:05:20;;;;;;;5.53;2.72;;;;;;;11.59;100.00;100689.56;5072186;28;20063;-70
2021/12/31 11:07:49;;;;;;;4.32;2.60;;;;;;;11.63;100.00;100683.94;5071885;28;20048;-68
2021/12/31 11:10:34;;;;;;;5.45;3.22;;;;;;;11.69;100.00;100678.25;5071210;28;20394;-68
2021/12/31 11:13:09;;;;;;;5.13;3.05;;;;;;;11.63;100.00;100685.75;5072356;28;20531;-70
2021/12/31 11:15:38;;;;;;;5.65;3.10;;;;;;;11.62;100.00;100673.34;5071458;28;20474;-70
2021/12/31 11:18:08;;;;;;;4.35;2.40;;;;;;;11.67;100.00;100673.91;5071774;28;20044;-70
2021/12/31 11:20:37;;;;;;;4.47;2.67;;;;;;;11.82;100.00;100686.44;5071480;28;20044;-73
2021/12/31 11:23:05;;;;;;;4.72;2.63;;;;;;;11.78;100.00;100687.53;5070782;28;20059;-73